sensor_id;sensor_type;location;lat;lon;timestamp;temperature;humidity
2955;DHT22;1487;51.470;6.938;2023-02-21T00:00:09;8.20;99.90
2955;DHT22;1487;51.470;6.938;2023-02-21T00:02:53;8.30;99.90
2955;DHT22;1487;51.470;6.938;2023-02-21T00:05:38;8.30;99.90
2955;DHT22;1487;51.470;6.938;2023-02-21T00:08:22;8.30;99.90
2955;DHT22;1487;51.470;6.938;2023-02-21T00:11:06;8.30;99.90
2955;DHT22;1487;51.470;6.938;2023-02-21T00:13:52;8.30;99.90
2955;DHT22;1487;51.470;6.938;2023-02-21T00:16:36;8.30;99.90
2955;DHT22;1487;51.470;6.938;2023-02-21T00:19:20;8.20;99.90
2955;DHT22;1487;51.470;6.938;2023-02-21T00:22:05;8.20;99.90
2955;DHT22;1487;51.470;6.938;2023-02-21T00:24:49;8.20;99.90
2955;DHT22;1487;51.470;6.938;2023-02-21T00:27:33;8.20;99.90
2955;DHT22;1487;51.470;6.938;2023-02-21T00:30:19;8.20;99.90
2955;DHT22;1487;51.470;6.938;2023-02-21T00:33:03;8.20;99.90
2955;DHT22;1487;51.470;6.938;2023-02-21T00:35:48;8.20;99.90
2955;DHT22;1487;51.470;6.938;2023-02-21T00:38:32;8.20;99.90
2955;DHT22;1487;51.470;6.938;2023-02-21T00:41:16;8.20;99.90
2955;DHT22;1487;51.470;6.938;2023-02-21T00:44:00;8.20;99.90
2955;DHT22;1487;51.470;6.938;2023-02-21T00:46:46;8.10;99.90
2955;DHT22;1487;51.470;6.938;2023-02-21T00:49:30;8.10;99.90
2955;DHT22;1487;51.470;6.938;2023-02-21T00:52:14;8.10;99.90
2955;DHT22;1487;51.470;6.938;2023-02-21T00:54:58;8.10;99.90
2955;DHT22;1487;51.470;6.938;2023-02-21T00:57:43;8.10;99.90
2955;DHT22;1487;51.470;6.938;2023-02-21T01:00:27;8.10;99.90
2955;DHT22;1487;51.470;6.938;2023-02-21T01:03:12;8.10;99.90
2955;DHT22;1487;51.470;6.938;2023-02-21T01:05:57;8.10;99.90
2955;DHT22;1487;51.470;6.938;2023-02-21T01:08:42;8.10;99.90
2955;DHT22;1487;51.470;6.938;2023-02-21T01:11:27;8.10;99.90
2955;DHT22;1487;51.470;6.938;2023-02-21T01:14:11;8.20;99.90
2955;DHT22;1487;51.470;6.938;2023-02-21T01:16:56;8.10;99.90
2955;DHT22;1487;51.470;6.938;2023-02-21T01:19:41;8.10;99.90
2955;DHT22;1487;51.470;6.938;2023-02-21T01:22:26;8.10;99.90
2955;DHT22;1487;51.470;6.938;2023-02-21T01:25:11;8.10;99.90
2955;DHT22;1487;51.470;6.938;2023-02-21T01:27:56;8.10;99.90
2955;DHT22;1487;51.470;6.938;2023-02-21T01:30:40;8.10;99.90
2955;DHT22;1487;51.470;6.938;2023-02-21T01:33:24;8.00;99.90
2955;DHT22;1487;51.470;6.938;2023-02-21T01:36:10;8.00;99.90
2955;DHT22;1487;51.470;6.938;2023-02-21T01:38:54;8.10;99.90
2955;DHT22;1487;51.470;6.938;2023-02-21T01:41:38;8.10;99.90
2955;DHT22;1487;51.470;6.938;2023-02-21T01:44:34;8.00;99.90
2955;DHT22;1487;51.470;6.938;2023-02-21T01:47:19;8.00;99.90
2955;DHT22;1487;51.470;6.938;2023-02-21T01:50:08;8.00;99.90
2955;DHT22;1487;51.470;6.938;2023-02-21T01:52:55;8.10;99.90
2955;DHT22;1487;51.470;6.938;2023-02-21T01:55:41;8.10;99.90
2955;DHT22;1487;51.470;6.938;2023-02-21T01:58:30;8.10;99.90
2955;DHT22;1487;51.470;6.938;2023-02-21T02:01:36;8.00;99.90
2955;DHT22;1487;51.470;6.938;2023-02-21T02:04:22;8.00;99.90
2955;DHT22;1487;51.470;6.938;2023-02-21T02:07:06;8.00;99.90
2955;DHT22;1487;51.470;6.938;2023-02-21T02:09:52;8.10;99.90
2955;DHT22;1487;51.470;6.938;2023-02-21T02:12:58;8.10;99.90
2955;DHT22;1487;51.470;6.938;2023-02-21T02:15:36;8.00;99.90
2955;DHT22;1487;51.470;6.938;2023-02-21T02:18:36;8.00;99.90
2955;DHT22;1487;51.470;6.938;2023-02-21T02:21:43;8.00;99.90
2955;DHT22;1487;51.470;6.938;2023-02-21T02:24:35;8.00;99.90
2955;DHT22;1487;51.470;6.938;2023-02-21T02:27:30;8.00;99.90
2955;DHT22;1487;51.470;6.938;2023-02-21T02:33:34;8.00;99.90
2955;DHT22;1487;51.470;6.938;2023-02-21T02:36:09;8.00;99.90
2955;DHT22;1487;51.470;6.938;2023-02-21T02:38:47;7.90;99.90
2955;DHT22;1487;51.470;6.938;2023-02-21T02:41:23;8.00;99.90
2955;DHT22;1487;51.470;6.938;2023-02-21T02:43:56;8.00;99.90
2955;DHT22;1487;51.470;6.938;2023-02-21T02:46:27;8.00;99.90
2955;DHT22;1487;51.470;6.938;2023-02-21T02:48:59;8.00;99.90
2955;DHT22;1487;51.470;6.938;2023-02-21T02:51:28;8.00;99.90
2955;DHT22;1487;51.470;6.938;2023-02-21T02:53:58;8.00;99.90
2955;DHT22;1487;51.470;6.938;2023-02-21T02:56:25;8.00;99.90
2955;DHT22;1487;51.470;6.938;2023-02-21T02:58:55;8.00;99.90
2955;DHT22;1487;51.470;6.938;2023-02-21T03:04:40;8.00;99.90
2955;DHT22;1487;51.470;6.938;2023-02-21T03:07:19;8.00;99.90
2955;DHT22;1487;51.470;6.938;2023-02-21T03:09:56;7.90;99.90
2955;DHT22;1487;51.470;6.938;2023-02-21T03:12:33;7.90;99.90
2955;DHT22;1487;51.470;6.938;2023-02-21T03:15:06;7.90;99.90
2955;DHT22;1487;51.470;6.938;2023-02-21T03:17:39;8.00;99.90
2955;DHT22;1487;51.470;6.938;2023-02-21T03:20:09;8.00;99.90
2955;DHT22;1487;51.470;6.938;2023-02-21T03:22:39;8.00;99.90
2955;DHT22;1487;51.470;6.938;2023-02-21T03:25:06;8.00;99.90
2955;DHT22;1487;51.470;6.938;2023-02-21T03:27:35;8.00;99.90
2955;DHT22;1487;51.470;6.938;2023-02-21T03:30:05;8.00;99.90
2955;DHT22;1487;51.470;6.938;2023-02-21T03:32:36;8.00;99.90
2955;DHT22;1487;51.470;6.938;2023-02-21T03:35:03;8.00;99.90
2955;DHT22;1487;51.470;6.938;2023-02-21T03:37:33;8.00;99.90
2955;DHT22;1487;51.470;6.938;2023-02-21T03:40:03;8.00;99.90
2955;DHT22;1487;51.470;6.938;2023-02-21T03:42:30;8.00;99.90
2955;DHT22;1487;51.470;6.938;2023-02-21T03:44:57;8.00;99.90
2955;DHT22;1487;51.470;6.938;2023-02-21T03:47:24;8.00;99.90
2955;DHT22;1487;51.470;6.938;2023-02-21T03:49:51;8.00;99.90
2955;DHT22;1487;51.470;6.938;2023-02-21T03:52:18;8.00;99.90
2955;DHT22;1487;51.470;6.938;2023-02-21T03:54:44;8.00;99.90
2955;DHT22;1487;51.470;6.938;2023-02-21T03:57:13;8.00;99.90
2955;DHT22;1487;51.470;6.938;2023-02-21T03:59:40;8.00;99.90
2955;DHT22;1487;51.470;6.938;2023-02-21T04:02:07;8.00;99.90
2955;DHT22;1487;51.470;6.938;2023-02-21T04:04:34;8.00;99.90
2955;DHT22;1487;51.470;6.938;2023-02-21T04:07:01;8.00;99.90
2955;DHT22;1487;51.470;6.938;2023-02-21T04:09:28;7.90;99.90
2955;DHT22;1487;51.470;6.938;2023-02-21T04:11:55;8.00;99.90
2955;DHT22;1487;51.470;6.938;2023-02-21T04:14:23;8.00;99.90
2955;DHT22;1487;51.470;6.938;2023-02-21T04:16:50;8.00;99.90
2955;DHT22;1487;51.470;6.938;2023-02-21T04:19:17;8.00;99.90
2955;DHT22;1487;51.470;6.938;2023-02-21T04:21:44;8.00;99.90
2955;DHT22;1487;51.470;6.938;2023-02-21T04:24:11;8.00;99.90
2955;DHT22;1487;51.470;6.938;2023-02-21T04:26:37;8.00;99.90
2955;DHT22;1487;51.470;6.938;2023-02-21T04:29:04;8.00;99.90
2955;DHT22;1487;51.470;6.938;2023-02-21T04:31:33;8.00;99.90
2955;DHT22;1487;51.470;6.938;2023-02-21T04:34:00;8.00;99.90
2955;DHT22;1487;51.470;6.938;2023-02-21T04:36:27;8.00;99.90
2955;DHT22;1487;51.470;6.938;2023-02-21T04:38:54;8.00;99.90
2955;DHT22;1487;51.470;6.938;2023-02-21T04:41:21;7.90;99.90
2955;DHT22;1487;51.470;6.938;2023-02-21T04:43:48;7.80;99.90
2955;DHT22;1487;51.470;6.938;2023-02-21T04:46:17;7.80;99.90
2955;DHT22;1487;51.470;6.938;2023-02-21T04:48:48;7.80;99.90
2955;DHT22;1487;51.470;6.938;2023-02-21T04:51:16;7.80;99.90
2955;DHT22;1487;51.470;6.938;2023-02-21T04:53:47;7.70;99.90
2955;DHT22;1487;51.470;6.938;2023-02-21T04:56:14;7.70;99.90
2955;DHT22;1487;51.470;6.938;2023-02-21T04:58:43;7.70;99.90
2955;DHT22;1487;51.470;6.938;2023-02-21T05:01:10;7.70;99.90
2955;DHT22;1487;51.470;6.938;2023-02-21T05:03:37;7.70;99.90
2955;DHT22;1487;51.470;6.938;2023-02-21T05:06:06;7.70;99.90
2955;DHT22;1487;51.470;6.938;2023-02-21T05:08:33;7.70;99.90
2955;DHT22;1487;51.470;6.938;2023-02-21T05:11:00;7.70;99.90
2955;DHT22;1487;51.470;6.938;2023-02-21T05:13:27;7.80;99.90
2955;DHT22;1487;51.470;6.938;2023-02-21T05:15:54;7.80;99.90
2955;DHT22;1487;51.470;6.938;2023-02-21T05:18:21;7.70;99.90
2955;DHT22;1487;51.470;6.938;2023-02-21T05:20:53;7.80;99.90
2955;DHT22;1487;51.470;6.938;2023-02-21T05:23:22;7.80;99.90
2955;DHT22;1487;51.470;6.938;2023-02-21T05:26:00;7.90;99.90
2955;DHT22;1487;51.470;6.938;2023-02-21T05:28:27;7.80;99.90
2955;DHT22;1487;51.470;6.938;2023-02-21T05:30:54;7.80;99.90
2955;DHT22;1487;51.470;6.938;2023-02-21T05:33:21;7.70;99.90
2955;DHT22;1487;51.470;6.938;2023-02-21T05:35:48;7.70;99.90
2955;DHT22;1487;51.470;6.938;2023-02-21T05:38:15;7.70;99.90
2955;DHT22;1487;51.470;6.938;2023-02-21T05:40:44;7.70;99.90
2955;DHT22;1487;51.470;6.938;2023-02-21T05:43:11;7.70;99.90
2955;DHT22;1487;51.470;6.938;2023-02-21T05:45:38;7.70;99.90
2955;DHT22;1487;51.470;6.938;2023-02-21T05:48:05;7.80;99.90
2955;DHT22;1487;51.470;6.938;2023-02-21T05:50:32;7.70;99.90
2955;DHT22;1487;51.470;6.938;2023-02-21T05:52:59;7.70;99.90
2955;DHT22;1487;51.470;6.938;2023-02-21T05:55:26;7.80;99.90
2955;DHT22;1487;51.470;6.938;2023-02-21T05:57:55;7.70;99.90
2955;DHT22;1487;51.470;6.938;2023-02-21T06:00:24;7.70;99.90
2955;DHT22;1487;51.470;6.938;2023-02-21T06:02:50;7.60;99.90
2955;DHT22;1487;51.470;6.938;2023-02-21T06:05:18;7.60;99.90
2955;DHT22;1487;51.470;6.938;2023-02-21T06:07:45;7.50;99.90
2955;DHT22;1487;51.470;6.938;2023-02-21T06:10:13;7.50;99.90
2955;DHT22;1487;51.470;6.938;2023-02-21T06:12:40;7.50;99.90
2955;DHT22;1487;51.470;6.938;2023-02-21T06:15:09;7.50;99.90
2955;DHT22;1487;51.470;6.938;2023-02-21T06:17:37;7.50;99.90
2955;DHT22;1487;51.470;6.938;2023-02-21T06:20:05;7.50;99.90
2955;DHT22;1487;51.470;6.938;2023-02-21T06:22:32;7.50;99.90
2955;DHT22;1487;51.470;6.938;2023-02-21T06:24:59;7.50;99.90
2955;DHT22;1487;51.470;6.938;2023-02-21T06:27:26;7.50;99.90
2955;DHT22;1487;51.470;6.938;2023-02-21T06:29:53;7.50;99.90
2955;DHT22;1487;51.470;6.938;2023-02-21T06:32:21;7.60;99.90
2955;DHT22;1487;51.470;6.938;2023-02-21T06:34:48;7.60;99.90
2955;DHT22;1487;51.470;6.938;2023-02-21T06:37:16;7.60;99.90
2955;DHT22;1487;51.470;6.938;2023-02-21T06:39:43;7.60;99.90
2955;DHT22;1487;51.470;6.938;2023-02-21T06:42:12;7.60;99.90
2955;DHT22;1487;51.470;6.938;2023-02-21T06:44:39;7.60;99.90
2955;DHT22;1487;51.470;6.938;2023-02-21T06:47:06;7.60;99.90
2955;DHT22;1487;51.470;6.938;2023-02-21T06:49:34;7.60;99.90
2955;DHT22;1487;51.470;6.938;2023-02-21T06:52:01;7.60;99.90
2955;DHT22;1487;51.470;6.938;2023-02-21T06:54:28;7.60;99.90
2955;DHT22;1487;51.470;6.938;2023-02-21T06:56:54;7.50;99.90
2955;DHT22;1487;51.470;6.938;2023-02-21T06:59:21;7.50;99.90
2955;DHT22;1487;51.470;6.938;2023-02-21T07:01:48;7.50;99.90
2955;DHT22;1487;51.470;6.938;2023-02-21T07:04:15;7.50;99.90
2955;DHT22;1487;51.470;6.938;2023-02-21T07:06:43;7.50;99.90
2955;DHT22;1487;51.470;6.938;2023-02-21T07:09:10;7.40;99.90
2955;DHT22;1487;51.470;6.938;2023-02-21T07:11:38;7.40;99.90
2955;DHT22;1487;51.470;6.938;2023-02-21T07:14:05;7.40;99.90
2955;DHT22;1487;51.470;6.938;2023-02-21T07:16:32;7.50;99.90
2955;DHT22;1487;51.470;6.938;2023-02-21T07:18:59;7.50;99.90
2955;DHT22;1487;51.470;6.938;2023-02-21T07:21:26;7.40;99.90
2955;DHT22;1487;51.470;6.938;2023-02-21T07:23:55;7.40;99.90
2955;DHT22;1487;51.470;6.938;2023-02-21T07:26:22;7.40;99.90
2955;DHT22;1487;51.470;6.938;2023-02-21T07:28:49;7.40;99.90
2955;DHT22;1487;51.470;6.938;2023-02-21T07:31:16;7.40;99.90
2955;DHT22;1487;51.470;6.938;2023-02-21T07:33:44;7.40;99.90
2955;DHT22;1487;51.470;6.938;2023-02-21T07:36:11;7.40;99.90
2955;DHT22;1487;51.470;6.938;2023-02-21T07:38:38;7.40;99.90
2955;DHT22;1487;51.470;6.938;2023-02-21T07:41:06;7.30;99.90
2955;DHT22;1487;51.470;6.938;2023-02-21T07:43:33;7.40;99.90
2955;DHT22;1487;51.470;6.938;2023-02-21T07:46:00;7.40;99.90
2955;DHT22;1487;51.470;6.938;2023-02-21T07:48:27;7.40;99.90
2955;DHT22;1487;51.470;6.938;2023-02-21T07:50:54;7.40;99.90
2955;DHT22;1487;51.470;6.938;2023-02-21T07:53:21;7.40;99.90
2955;DHT22;1487;51.470;6.938;2023-02-21T07:55:48;7.30;99.90
2955;DHT22;1487;51.470;6.938;2023-02-21T07:58:16;7.30;99.90
2955;DHT22;1487;51.470;6.938;2023-02-21T08:00:43;7.30;99.90
2955;DHT22;1487;51.470;6.938;2023-02-21T08:03:12;7.30;99.90
2955;DHT22;1487;51.470;6.938;2023-02-21T08:05:39;7.30;99.90
2955;DHT22;1487;51.470;6.938;2023-02-21T08:08:07;7.20;99.90
2955;DHT22;1487;51.470;6.938;2023-02-21T08:10:35;7.20;99.90
2955;DHT22;1487;51.470;6.938;2023-02-21T08:13:02;7.20;99.90
2955;DHT22;1487;51.470;6.938;2023-02-21T08:15:30;7.20;99.90
2955;DHT22;1487;51.470;6.938;2023-02-21T08:17:57;7.30;99.90
2955;DHT22;1487;51.470;6.938;2023-02-21T08:20:24;7.30;99.90
2955;DHT22;1487;51.470;6.938;2023-02-21T08:22:51;7.30;99.90
2955;DHT22;1487;51.470;6.938;2023-02-21T08:25:18;7.30;99.90
2955;DHT22;1487;51.470;6.938;2023-02-21T08:27:44;7.30;99.90
2955;DHT22;1487;51.470;6.938;2023-02-21T08:30:15;7.30;99.90
2955;DHT22;1487;51.470;6.938;2023-02-21T08:32:44;7.30;99.90
2955;DHT22;1487;51.470;6.938;2023-02-21T08:35:12;7.20;99.90
2955;DHT22;1487;51.470;6.938;2023-02-21T08:37:42;7.20;99.90
2955;DHT22;1487;51.470;6.938;2023-02-21T08:40:10;7.10;99.90
2955;DHT22;1487;51.470;6.938;2023-02-21T08:42:39;7.10;99.90
2955;DHT22;1487;51.470;6.938;2023-02-21T08:45:06;7.20;99.90
2955;DHT22;1487;51.470;6.938;2023-02-21T08:47:35;7.20;99.90
2955;DHT22;1487;51.470;6.938;2023-02-21T08:50:04;7.20;99.90
2955;DHT22;1487;51.470;6.938;2023-02-21T08:52:31;7.20;99.90
2955;DHT22;1487;51.470;6.938;2023-02-21T08:54:58;7.20;99.90
2955;DHT22;1487;51.470;6.938;2023-02-21T08:57:25;7.10;99.90
2955;DHT22;1487;51.470;6.938;2023-02-21T08:59:52;7.10;99.90
2955;DHT22;1487;51.470;6.938;2023-02-21T09:02:21;7.20;99.90
2955;DHT22;1487;51.470;6.938;2023-02-21T09:04:50;7.20;99.90
2955;DHT22;1487;51.470;6.938;2023-02-21T09:07:20;7.20;99.90
2955;DHT22;1487;51.470;6.938;2023-02-21T09:09:47;7.20;99.90
2955;DHT22;1487;51.470;6.938;2023-02-21T09:12:14;7.20;99.90
2955;DHT22;1487;51.470;6.938;2023-02-21T09:14:42;7.20;99.90
2955;DHT22;1487;51.470;6.938;2023-02-21T09:17:12;7.20;99.90
2955;DHT22;1487;51.470;6.938;2023-02-21T09:19:39;7.30;99.90
2955;DHT22;1487;51.470;6.938;2023-02-21T09:22:06;7.30;99.90
2955;DHT22;1487;51.470;6.938;2023-02-21T09:24:35;7.30;99.90
2955;DHT22;1487;51.470;6.938;2023-02-21T09:27:02;7.30;99.90
2955;DHT22;1487;51.470;6.938;2023-02-21T09:29:31;7.30;99.90
2955;DHT22;1487;51.470;6.938;2023-02-21T09:31:58;7.20;99.90
2955;DHT22;1487;51.470;6.938;2023-02-21T09:34:25;7.30;99.90
2955;DHT22;1487;51.470;6.938;2023-02-21T09:36:52;7.30;99.90
2955;DHT22;1487;51.470;6.938;2023-02-21T09:39:20;7.40;99.90
2955;DHT22;1487;51.470;6.938;2023-02-21T09:41:50;7.40;99.90
2955;DHT22;1487;51.470;6.938;2023-02-21T09:44:22;7.40;99.90
2955;DHT22;1487;51.470;6.938;2023-02-21T09:46:53;7.40;99.90
2955;DHT22;1487;51.470;6.938;2023-02-21T09:49:22;7.40;99.90
2955;DHT22;1487;51.470;6.938;2023-02-21T09:51:50;7.40;99.90
2955;DHT22;1487;51.470;6.938;2023-02-21T09:54:23;7.40;99.90
2955;DHT22;1487;51.470;6.938;2023-02-21T09:56:53;7.40;99.90
2955;DHT22;1487;51.470;6.938;2023-02-21T09:59:22;7.40;99.90
2955;DHT22;1487;51.470;6.938;2023-02-21T10:01:58;7.40;99.90
2955;DHT22;1487;51.470;6.938;2023-02-21T10:04:34;7.40;99.90
2955;DHT22;1487;51.470;6.938;2023-02-21T10:07:10;7.50;99.90
2955;DHT22;1487;51.470;6.938;2023-02-21T10:09:44;7.60;99.90
2955;DHT22;1487;51.470;6.938;2023-02-21T10:12:20;7.70;99.90
2955;DHT22;1487;51.470;6.938;2023-02-21T10:15:03;7.70;99.90
2955;DHT22;1487;51.470;6.938;2023-02-21T10:17:43;7.70;99.90
2955;DHT22;1487;51.470;6.938;2023-02-21T10:20:14;7.70;99.90
2955;DHT22;1487;51.470;6.938;2023-02-21T10:22:43;7.80;99.90
2955;DHT22;1487;51.470;6.938;2023-02-21T10:25:20;7.80;99.90
2955;DHT22;1487;51.470;6.938;2023-02-21T10:27:49;7.80;99.90
2955;DHT22;1487;51.470;6.938;2023-02-21T10:30:28;7.80;99.90
2955;DHT22;1487;51.470;6.938;2023-02-21T10:32:56;7.80;99.90
2955;DHT22;1487;51.470;6.938;2023-02-21T10:35:24;7.90;99.90
2955;DHT22;1487;51.470;6.938;2023-02-21T10:37:53;7.80;99.90
2955;DHT22;1487;51.470;6.938;2023-02-21T10:40:28;7.80;99.90
2955;DHT22;1487;51.470;6.938;2023-02-21T10:43:01;7.90;99.90
2955;DHT22;1487;51.470;6.938;2023-02-21T10:45:33;7.90;99.90
2955;DHT22;1487;51.470;6.938;2023-02-21T10:48:03;8.00;99.90
2955;DHT22;1487;51.470;6.938;2023-02-21T10:50:49;8.00;99.90
2955;DHT22;1487;51.470;6.938;2023-02-21T10:53:25;7.90;99.90
2955;DHT22;1487;51.470;6.938;2023-02-21T10:56:07;7.90;99.90
2955;DHT22;1487;51.470;6.938;2023-02-21T10:58:35;7.90;99.90
2955;DHT22;1487;51.470;6.938;2023-02-21T11:01:14;7.80;99.90
2955;DHT22;1487;51.470;6.938;2023-02-21T11:03:45;7.80;99.90
2955;DHT22;1487;51.470;6.938;2023-02-21T11:06:25;7.80;99.90
2955;DHT22;1487;51.470;6.938;2023-02-21T11:08:53;7.90;99.90
2955;DHT22;1487;51.470;6.938;2023-02-21T11:11:34;8.00;99.90
2955;DHT22;1487;51.470;6.938;2023-02-21T11:14:22;8.10;99.90
2955;DHT22;1487;51.470;6.938;2023-02-21T11:17:05;8.10;99.90
2955;DHT22;1487;51.470;6.938;2023-02-21T11:19:45;8.10;99.90
2955;DHT22;1487;51.470;6.938;2023-02-21T11:22:13;8.10;99.90
2955;DHT22;1487;51.470;6.938;2023-02-21T11:24:59;8.20;99.90
2955;DHT22;1487;51.470;6.938;2023-02-21T11:27:29;8.20;99.90
2955;DHT22;1487;51.470;6.938;2023-02-21T11:29:58;8.40;99.90
2955;DHT22;1487;51.470;6.938;2023-02-21T11:32:30;8.50;99.90
2955;DHT22;1487;51.470;6.938;2023-02-21T11:35:07;8.60;99.90
2955;DHT22;1487;51.470;6.938;2023-02-21T11:37:46;8.60;99.90
2955;DHT22;1487;51.470;6.938;2023-02-21T11:40:22;8.70;99.90
2955;DHT22;1487;51.470;6.938;2023-02-21T11:42:49;8.80;99.90
2955;DHT22;1487;51.470;6.938;2023-02-21T11:45:23;8.80;99.90
2955;DHT22;1487;51.470;6.938;2023-02-21T11:47:58;8.80;99.90
2955;DHT22;1487;51.470;6.938;2023-02-21T11:50:29;8.80;99.90
2955;DHT22;1487;51.470;6.938;2023-02-21T11:53:03;8.70;99.90
2955;DHT22;1487;51.470;6.938;2023-02-21T11:55:32;8.70;99.90
2955;DHT22;1487;51.470;6.938;2023-02-21T11:58:06;8.70;99.90
2955;DHT22;1487;51.470;6.938;2023-02-21T12:00:44;8.70;99.90
2955;DHT22;1487;51.470;6.938;2023-02-21T12:04:18;8.70;99.90
2955;DHT22;1487;51.470;6.938;2023-02-21T12:06:52;8.70;99.90
2955;DHT22;1487;51.470;6.938;2023-02-21T12:09:26;8.60;99.90
2955;DHT22;1487;51.470;6.938;2023-02-21T12:12:02;8.70;99.90
2955;DHT22;1487;51.470;6.938;2023-02-21T12:14:39;8.70;99.90
2955;DHT22;1487;51.470;6.938;2023-02-21T12:20:24;8.70;99.90
2955;DHT22;1487;51.470;6.938;2023-02-21T12:23:03;8.70;99.90
2955;DHT22;1487;51.470;6.938;2023-02-21T12:28:22;8.70;99.90
2955;DHT22;1487;51.470;6.938;2023-02-21T12:31:03;8.80;99.90
2955;DHT22;1487;51.470;6.938;2023-02-21T12:33:42;8.90;99.90
2955;DHT22;1487;51.470;6.938;2023-02-21T12:36:19;9.00;99.90
2955;DHT22;1487;51.470;6.938;2023-02-21T12:38:54;9.10;99.90
2955;DHT22;1487;51.470;6.938;2023-02-21T12:41:37;9.10;99.90
2955;DHT22;1487;51.470;6.938;2023-02-21T12:44:12;9.10;99.90
2955;DHT22;1487;51.470;6.938;2023-02-21T12:46:43;9.10;99.90
2955;DHT22;1487;51.470;6.938;2023-02-21T12:49:16;9.00;99.90
2955;DHT22;1487;51.470;6.938;2023-02-21T12:51:50;9.10;99.90
2955;DHT22;1487;51.470;6.938;2023-02-21T12:54:22;9.20;99.90
2955;DHT22;1487;51.470;6.938;2023-02-21T12:56:54;9.20;99.90
2955;DHT22;1487;51.470;6.938;2023-02-21T12:59:27;9.20;99.90
2955;DHT22;1487;51.470;6.938;2023-02-21T13:01:59;9.30;99.90
2955;DHT22;1487;51.470;6.938;2023-02-21T13:04:37;9.40;99.90
2955;DHT22;1487;51.470;6.938;2023-02-21T13:07:11;9.50;99.90
2955;DHT22;1487;51.470;6.938;2023-02-21T13:09:47;9.50;99.90
2955;DHT22;1487;51.470;6.938;2023-02-21T13:12:19;9.50;99.90
2955;DHT22;1487;51.470;6.938;2023-02-21T13:14:48;9.50;99.90
2955;DHT22;1487;51.470;6.938;2023-02-21T13:17:17;9.50;99.90
2955;DHT22;1487;51.470;6.938;2023-02-21T13:19:49;9.40;99.90
2955;DHT22;1487;51.470;6.938;2023-02-21T13:22:23;9.40;99.90
2955;DHT22;1487;51.470;6.938;2023-02-21T13:25:20;9.30;99.90
2955;DHT22;1487;51.470;6.938;2023-02-21T13:27:56;9.30;99.90
2955;DHT22;1487;51.470;6.938;2023-02-21T13:30:35;9.30;99.90
2955;DHT22;1487;51.470;6.938;2023-02-21T13:33:03;9.30;99.90
2955;DHT22;1487;51.470;6.938;2023-02-21T13:35:34;9.30;99.90
2955;DHT22;1487;51.470;6.938;2023-02-21T13:38:04;9.30;99.90
2955;DHT22;1487;51.470;6.938;2023-02-21T13:40:35;9.40;99.90
2955;DHT22;1487;51.470;6.938;2023-02-21T13:43:10;9.40;99.90
2955;DHT22;1487;51.470;6.938;2023-02-21T13:45:38;9.30;99.90
2955;DHT22;1487;51.470;6.938;2023-02-21T13:48:18;9.30;99.90
2955;DHT22;1487;51.470;6.938;2023-02-21T13:50:48;9.30;99.90
2955;DHT22;1487;51.470;6.938;2023-02-21T13:53:17;9.30;99.90
2955;DHT22;1487;51.470;6.938;2023-02-21T13:58:51;9.30;99.90
2955;DHT22;1487;51.470;6.938;2023-02-21T14:08:01;9.30;99.90
2955;DHT22;1487;51.470;6.938;2023-02-21T14:10:36;9.10;99.90
2955;DHT22;1487;51.470;6.938;2023-02-21T14:13:07;9.10;99.90
2955;DHT22;1487;51.470;6.938;2023-02-21T14:15:40;9.10;99.90
2955;DHT22;1487;51.470;6.938;2023-02-21T14:18:20;9.10;99.90
2955;DHT22;1487;51.470;6.938;2023-02-21T14:20:50;9.20;99.90
2955;DHT22;1487;51.470;6.938;2023-02-21T14:23:21;9.10;99.90
2955;DHT22;1487;51.470;6.938;2023-02-21T14:25:58;9.10;99.90
2955;DHT22;1487;51.470;6.938;2023-02-21T14:28:47;9.20;99.90
2955;DHT22;1487;51.470;6.938;2023-02-21T14:31:14;9.10;99.90
2955;DHT22;1487;51.470;6.938;2023-02-21T14:34:02;9.00;99.90
2955;DHT22;1487;51.470;6.938;2023-02-21T14:36:29;8.90;99.90
2955;DHT22;1487;51.470;6.938;2023-02-21T14:38:58;8.90;99.90
2955;DHT22;1487;51.470;6.938;2023-02-21T14:41:35;8.90;99.90
2955;DHT22;1487;51.470;6.938;2023-02-21T14:44:18;8.90;99.90
2955;DHT22;1487;51.470;6.938;2023-02-21T14:47:07;8.80;99.90
2955;DHT22;1487;51.470;6.938;2023-02-21T14:49:49;8.90;99.90
2955;DHT22;1487;51.470;6.938;2023-02-21T14:52:44;8.90;99.90
2955;DHT22;1487;51.470;6.938;2023-02-21T14:55:35;8.90;99.90
2955;DHT22;1487;51.470;6.938;2023-02-21T14:58:28;9.00;99.90
2955;DHT22;1487;51.470;6.938;2023-02-21T15:01:06;9.00;99.90
2955;DHT22;1487;51.470;6.938;2023-02-21T15:03:40;8.90;99.90
2955;DHT22;1487;51.470;6.938;2023-02-21T15:06:10;8.90;99.90
2955;DHT22;1487;51.470;6.938;2023-02-21T15:08:44;8.90;99.90
2955;DHT22;1487;51.470;6.938;2023-02-21T15:11:22;8.90;99.90
2955;DHT22;1487;51.470;6.938;2023-02-21T15:14:11;8.90;99.90
2955;DHT22;1487;51.470;6.938;2023-02-21T15:16:39;8.90;99.90
2955;DHT22;1487;51.470;6.938;2023-02-21T15:19:19;8.90;99.90
2955;DHT22;1487;51.470;6.938;2023-02-21T15:21:47;8.80;99.90
2955;DHT22;1487;51.470;6.938;2023-02-21T15:24:15;8.90;99.90
2955;DHT22;1487;51.470;6.938;2023-02-21T15:26:43;8.90;99.90
2955;DHT22;1487;51.470;6.938;2023-02-21T15:29:12;8.90;99.90
2955;DHT22;1487;51.470;6.938;2023-02-21T15:31:41;8.90;99.90
2955;DHT22;1487;51.470;6.938;2023-02-21T15:34:14;8.90;99.90
2955;DHT22;1487;51.470;6.938;2023-02-21T15:36:44;8.90;99.90
2955;DHT22;1487;51.470;6.938;2023-02-21T15:39:19;8.90;99.90
2955;DHT22;1487;51.470;6.938;2023-02-21T15:41:50;8.90;99.90
2955;DHT22;1487;51.470;6.938;2023-02-21T15:44:22;8.90;99.90
2955;DHT22;1487;51.470;6.938;2023-02-21T15:46:52;8.90;99.90
2955;DHT22;1487;51.470;6.938;2023-02-21T15:49:21;9.00;99.90
2955;DHT22;1487;51.470;6.938;2023-02-21T15:51:49;9.00;99.90
2955;DHT22;1487;51.470;6.938;2023-02-21T15:54:25;8.90;99.90
2955;DHT22;1487;51.470;6.938;2023-02-21T15:57:03;8.90;99.90
2955;DHT22;1487;51.470;6.938;2023-02-21T15:59:30;8.90;99.90
2955;DHT22;1487;51.470;6.938;2023-02-21T16:02:22;8.90;99.90
2955;DHT22;1487;51.470;6.938;2023-02-21T16:04:51;8.90;99.90
2955;DHT22;1487;51.470;6.938;2023-02-21T16:07:22;8.80;99.90
2955;DHT22;1487;51.470;6.938;2023-02-21T16:09:57;8.60;99.90
2955;DHT22;1487;51.470;6.938;2023-02-21T16:12:30;8.60;99.90
2955;DHT22;1487;51.470;6.938;2023-02-21T16:15:00;8.60;99.90
2955;DHT22;1487;51.470;6.938;2023-02-21T16:17:29;8.60;99.90
2955;DHT22;1487;51.470;6.938;2023-02-21T16:19:59;8.50;99.90
2955;DHT22;1487;51.470;6.938;2023-02-21T16:22:30;8.40;99.90
2955;DHT22;1487;51.470;6.938;2023-02-21T16:25:11;8.40;99.90
2955;DHT22;1487;51.470;6.938;2023-02-21T16:27:42;8.40;99.90
2955;DHT22;1487;51.470;6.938;2023-02-21T16:30:12;8.40;99.90
2955;DHT22;1487;51.470;6.938;2023-02-21T16:32:41;8.40;99.90
2955;DHT22;1487;51.470;6.938;2023-02-21T16:35:13;8.30;99.90
2955;DHT22;1487;51.470;6.938;2023-02-21T16:37:40;8.30;99.90
2955;DHT22;1487;51.470;6.938;2023-02-21T16:40:12;8.40;99.90
2955;DHT22;1487;51.470;6.938;2023-02-21T16:42:40;8.40;99.90
2955;DHT22;1487;51.470;6.938;2023-02-21T16:45:08;8.40;99.90
2955;DHT22;1487;51.470;6.938;2023-02-21T16:47:35;8.50;99.90
2955;DHT22;1487;51.470;6.938;2023-02-21T16:50:02;8.50;99.90
2955;DHT22;1487;51.470;6.938;2023-02-21T16:52:29;8.40;99.90
2955;DHT22;1487;51.470;6.938;2023-02-21T16:54:56;8.60;99.90
2955;DHT22;1487;51.470;6.938;2023-02-21T16:57:24;8.70;99.90
2955;DHT22;1487;51.470;6.938;2023-02-21T16:59:53;8.70;99.90
2955;DHT22;1487;51.470;6.938;2023-02-21T17:02:20;8.70;99.90
2955;DHT22;1487;51.470;6.938;2023-02-21T17:04:49;8.80;99.90
2955;DHT22;1487;51.470;6.938;2023-02-21T17:07:16;8.80;99.90
2955;DHT22;1487;51.470;6.938;2023-02-21T17:09:45;8.80;99.90
2955;DHT22;1487;51.470;6.938;2023-02-21T17:12:12;8.80;99.90
2955;DHT22;1487;51.470;6.938;2023-02-21T17:14:38;8.80;99.90
2955;DHT22;1487;51.470;6.938;2023-02-21T17:17:07;8.80;99.90